Terminal Aerodrome Forecast
Issued by NWS Bismarck, ND

Home | Current Version | Previous Version | Graphics & Text | Print | Product List | Glossary On
Versions: 1 2 3 4 5 6 7 8 9 10 11 12 13 14 15 16 17 18 19 20 21 22 23 24 25 26 27 28 29 30 31
580
FTUS43 KBIS 030408 AAD
TAFBIS
TAF AMD
KBIS 030408Z 0304/0324 17004KT P6SM SCT014 BKN040
     FM030600 16005KT P6SM SCT050
     FM030900 16005KT 4SM BR SCT130
     FM031400 15006KT P6SM SCT150
     FM032000 18009KT P6SM BKN050
     FM032300 19007KT P6SM BKN035=

USA.gov is the U.S. government's official web portal to all federal, state and local government web resources and services.